createdAt,value
2023-04-15T00:02:21.283Z,6.05
2023-04-15T00:04:50.450Z,4.80
2023-04-15T00:07:18.177Z,5.35
2023-04-15T00:09:46.117Z,6.60
2023-04-15T00:12:13.909Z,8.48
2023-04-15T00:14:41.744Z,5.15
2023-04-15T00:17:09.429Z,7.18
2023-04-15T00:19:37.103Z,5.60
2023-04-15T00:22:06.189Z,8.13
2023-04-15T00:24:34.007Z,5.53
2023-04-15T00:27:01.748Z,6.13
2023-04-15T00:29:29.665Z,6.43
2023-04-15T00:31:57.919Z,5.45
2023-04-15T00:34:25.644Z,5.85
2023-04-15T00:36:53.569Z,6.03
2023-04-15T00:39:23.957Z,6.45
2023-04-15T00:41:51.716Z,6.25
2023-04-15T00:44:20.079Z,6.50
2023-04-15T00:46:49.264Z,7.90
2023-04-15T00:49:17.537Z,7.13
2023-04-15T00:51:46.449Z,5.75
2023-04-15T00:54:14.734Z,6.80
2023-04-15T00:56:43.825Z,7.63
2023-04-15T00:59:15.593Z,9.55
2023-04-15T01:01:45.194Z,7.28
2023-04-15T01:04:13.344Z,6.82
2023-04-15T01:06:41.035Z,7.18
2023-04-15T01:09:09.040Z,8.50
2023-04-15T01:11:36.665Z,8.60
2023-04-15T01:14:06.159Z,6.50
2023-04-15T01:16:34.011Z,10.23
2023-04-15T01:19:02.153Z,7.55
2023-04-15T01:21:30.092Z,8.25
2023-04-15T01:23:58.582Z,10.05
2023-04-15T01:26:28.315Z,9.98
2023-04-15T01:28:56.363Z,9.93
2023-04-15T01:31:24.086Z,9.95
2023-04-15T01:33:52.322Z,9.05
2023-04-15T01:36:19.971Z,9.88
2023-04-15T01:38:48.385Z,9.10
2023-04-15T01:41:16.323Z,9.05
2023-04-15T01:43:45.678Z,9.77
2023-04-15T01:46:13.437Z,9.55
2023-04-15T01:48:41.254Z,11.00
2023-04-15T01:51:09.109Z,11.90
2023-04-15T01:53:37.374Z,10.30
2023-04-15T01:56:05.641Z,12.48
2023-04-15T01:58:33.304Z,9.63
2023-04-15T02:01:03.030Z,9.52
2023-04-15T02:03:31.117Z,9.00
2023-04-15T02:05:58.911Z,9.82
2023-04-15T02:08:27.038Z,10.55
2023-04-15T02:10:54.671Z,12.15
2023-04-15T02:13:22.895Z,11.93
2023-04-15T02:15:52.450Z,11.63
2023-04-15T02:18:22.788Z,9.77
2023-04-15T02:20:52.326Z,9.38
2023-04-15T02:23:19.989Z,13.02
2023-04-15T02:25:53.949Z,12.90
2023-04-15T02:28:22.167Z,11.23
2023-04-15T02:30:52.678Z,14.32
2023-04-15T02:33:22.239Z,11.07
2023-04-15T02:35:49.953Z,13.43
2023-04-15T02:38:17.937Z,12.20
2023-04-15T02:40:46.240Z,11.95
2023-04-15T02:43:13.957Z,13.52
2023-04-15T02:45:44.461Z,12.40
2023-04-15T02:48:12.171Z,11.15
2023-04-15T02:50:41.581Z,14.13
2023-04-15T02:53:09.312Z,15.30
2023-04-15T02:55:36.947Z,12.48
2023-04-15T02:58:04.923Z,13.70
2023-04-15T03:00:32.622Z,13.18
2023-04-15T03:03:03.619Z,12.43
2023-04-15T03:05:31.512Z,12.98
2023-04-15T03:08:01.055Z,12.60
2023-04-15T03:10:29.016Z,14.45
2023-04-15T03:12:56.676Z,14.80
2023-04-15T03:15:24.519Z,13.68
2023-04-15T03:17:52.245Z,15.43
2023-04-15T03:20:20.299Z,13.15
2023-04-15T03:22:48.006Z,15.25
2023-04-15T03:25:17.011Z,14.95
2023-04-15T03:27:44.643Z,12.50
2023-04-15T03:30:13.345Z,16.80
2023-04-15T03:32:41.030Z,15.25
2023-04-15T03:35:09.630Z,16.48
2023-04-15T03:37:37.453Z,12.85
2023-04-15T03:40:05.634Z,15.20
2023-04-15T03:42:34.581Z,17.02
2023-04-15T03:45:02.295Z,17.85
2023-04-15T03:47:30.003Z,17.23
2023-04-15T03:49:57.665Z,16.85
2023-04-15T03:52:25.644Z,14.82
2023-04-15T03:54:53.307Z,17.42
2023-04-15T03:57:21.095Z,16.30
2023-04-15T03:59:50.068Z,18.67
2023-04-15T04:02:17.913Z,17.70
2023-04-15T04:04:45.787Z,16.05
2023-04-15T04:07:16.736Z,16.35
2023-04-15T04:09:46.619Z,17.98
2023-04-15T04:12:14.963Z,17.48
2023-04-15T04:14:42.628Z,16.05
2023-04-15T04:17:11.825Z,14.90
2023-04-15T04:19:39.736Z,18.90
2023-04-15T04:22:07.524Z,19.02
2023-04-15T04:24:35.141Z,15.93
2023-04-15T04:27:02.980Z,16.05
2023-04-15T04:29:31.719Z,16.17
2023-04-15T04:31:59.415Z,17.92
2023-04-15T04:34:29.294Z,15.30
2023-04-15T04:36:57.113Z,16.70
2023-04-15T04:39:25.086Z,15.05
2023-04-15T04:41:53.160Z,18.70
2023-04-15T04:44:21.149Z,15.80
2023-04-15T04:46:50.265Z,16.40
2023-04-15T04:49:18.199Z,17.42
2023-04-15T04:51:48.504Z,17.13
2023-04-15T04:54:16.222Z,22.92
2023-04-15T04:56:43.967Z,17.48
2023-04-15T04:59:11.745Z,16.13
2023-04-15T05:01:39.608Z,15.57
2023-04-15T05:04:07.940Z,19.23
2023-04-15T05:06:36.762Z,19.55
2023-04-15T05:09:05.861Z,18.63
2023-04-15T05:11:34.331Z,17.60
2023-04-15T05:14:02.408Z,16.48
2023-04-15T05:16:30.249Z,15.77
2023-04-15T05:18:58.031Z,20.55
2023-04-15T05:21:25.944Z,16.98
2023-04-15T05:23:53.605Z,15.88
2023-04-15T05:26:22.637Z,17.25
2023-04-15T05:28:50.941Z,16.33
2023-04-15T05:31:18.789Z,14.88
2023-04-15T05:33:46.781Z,14.88
2023-04-15T05:36:15.767Z,16.55
2023-04-15T05:38:43.635Z,16.40
2023-04-15T05:41:11.310Z,17.20
2023-04-15T05:43:40.872Z,14.20
2023-04-15T05:46:09.536Z,17.52
2023-04-15T05:48:37.269Z,16.42
2023-04-15T05:51:05.746Z,15.73
2023-04-15T05:53:33.678Z,13.75
2023-04-15T05:56:01.467Z,14.85
2023-04-15T05:58:29.370Z,13.73
2023-04-15T06:00:59.387Z,14.80
2023-04-15T06:03:27.244Z,13.35
2023-04-15T06:05:55.405Z,14.75
2023-04-15T06:08:23.193Z,14.52
2023-04-15T06:10:51.136Z,15.25
2023-04-15T06:13:18.855Z,15.48
2023-04-15T06:15:46.598Z,14.05
2023-04-15T06:18:20.045Z,13.35
2023-04-15T06:20:48.152Z,11.30
2023-04-15T06:23:20.815Z,12.10
2023-04-15T06:25:49.048Z,14.13
2023-04-15T06:28:16.873Z,11.02
2023-04-15T06:30:44.805Z,12.50
2023-04-15T06:33:13.377Z,12.18
2023-04-15T06:35:42.636Z,10.38
2023-04-15T06:38:10.576Z,10.68
2023-04-15T06:40:38.424Z,10.02
2023-04-15T06:43:07.912Z,11.50
2023-04-15T06:45:35.770Z,11.98
2023-04-15T06:48:03.772Z,12.32
2023-04-15T06:50:31.480Z,9.93
2023-04-15T06:53:00.592Z,8.60
2023-04-15T06:55:28.460Z,8.93
2023-04-15T06:57:56.206Z,8.85
2023-04-15T07:00:24.139Z,11.00
2023-04-15T07:02:53.028Z,9.13
2023-04-15T07:05:22.265Z,11.93
2023-04-15T07:07:50.154Z,8.13
2023-04-15T07:10:19.438Z,8.65
2023-04-15T07:12:47.267Z,9.98
2023-04-15T07:15:14.915Z,8.75
2023-04-15T07:17:43.632Z,8.80
2023-04-15T07:20:12.749Z,7.22
2023-04-15T07:22:40.888Z,8.43
2023-04-15T07:25:09.682Z,7.22
2023-04-15T07:27:39.074Z,7.20
2023-04-15T07:30:09.330Z,7.70
2023-04-15T07:32:37.503Z,8.23
2023-04-15T07:35:05.697Z,7.63
2023-04-15T07:37:33.583Z,5.05
2023-04-15T07:40:01.356Z,6.15
2023-04-15T07:42:30.190Z,6.97
2023-04-15T07:44:59.247Z,6.13
2023-04-15T07:47:27.154Z,5.63
2023-04-15T07:49:55.648Z,5.60
2023-04-15T07:52:23.481Z,9.15
2023-04-15T07:54:51.813Z,10.93
2023-04-15T07:57:19.879Z,8.68
2023-04-15T07:59:49.185Z,7.75
2023-04-15T08:02:23.716Z,6.53
2023-04-15T08:04:51.970Z,11.95
2023-04-15T08:07:20.218Z,10.43
2023-04-15T08:09:48.168Z,6.22
2023-04-15T08:12:16.173Z,6.15
2023-04-15T08:14:44.024Z,4.80
2023-04-15T08:17:13.786Z,4.53
2023-04-15T08:19:43.348Z,4.25
2023-04-15T08:22:16.022Z,5.28
2023-04-15T08:24:47.329Z,5.38
2023-04-15T08:27:16.273Z,6.20
2023-04-15T08:29:45.530Z,5.07
2023-04-15T08:32:13.264Z,3.85
2023-04-15T08:34:43.322Z,4.97
2023-04-15T08:37:12.796Z,4.57
2023-04-15T08:39:40.620Z,5.47
2023-04-15T08:42:13.395Z,5.80
2023-04-15T08:44:41.657Z,6.07
2023-04-15T08:47:14.488Z,4.88
2023-04-15T08:49:44.038Z,4.35
2023-04-15T08:52:13.305Z,4.72
2023-04-15T08:54:42.196Z,3.85
2023-04-15T08:57:09.908Z,4.65
2023-04-15T08:59:37.778Z,4.32
2023-04-15T09:02:05.919Z,5.15
2023-04-15T09:04:34.072Z,4.65
2023-04-15T09:07:02.094Z,5.55
2023-04-15T09:09:31.283Z,6.47
2023-04-15T09:11:59.083Z,4.20
2023-04-15T09:14:27.024Z,7.45
2023-04-15T09:16:57.764Z,5.90
2023-04-15T09:19:27.307Z,3.90
2023-04-15T09:21:58.831Z,4.47
2023-04-15T09:24:34.771Z,7.15
2023-04-15T09:27:06.645Z,6.60
2023-04-15T09:29:34.565Z,6.10
2023-04-15T09:32:12.947Z,5.07
2023-04-15T09:34:42.173Z,5.30
2023-04-15T09:37:10.853Z,4.90
2023-04-15T09:39:50.196Z,4.65
2023-04-15T09:42:24.307Z,5.32
2023-04-15T09:44:53.782Z,6.18
2023-04-15T09:47:32.197Z,7.00
2023-04-15T09:50:02.210Z,7.95
2023-04-15T09:52:30.610Z,7.05
2023-04-15T09:54:59.640Z,6.65
2023-04-15T09:57:37.169Z,7.03
2023-04-15T10:00:06.856Z,7.57
2023-04-15T10:02:35.054Z,10.02
2023-04-15T10:05:05.986Z,7.72
2023-04-15T10:07:35.176Z,7.13
2023-04-15T10:10:06.288Z,7.30
2023-04-15T10:12:38.691Z,11.05
2023-04-15T10:15:07.746Z,8.85
2023-04-15T10:17:37.204Z,8.85
2023-04-15T10:20:07.591Z,12.07
2023-04-15T10:22:36.859Z,11.10
2023-04-15T10:25:06.792Z,14.52
2023-04-15T10:27:35.214Z,13.25
2023-04-15T10:30:07.029Z,10.65
2023-04-15T10:32:35.082Z,13.40
2023-04-15T10:35:04.234Z,14.73
2023-04-15T10:37:36.580Z,13.20
2023-04-15T10:40:27.263Z,14.15
2023-04-15T10:42:56.594Z,15.70
2023-04-15T10:45:29.814Z,13.88
2023-04-15T10:48:02.897Z,17.40
2023-04-15T10:50:35.365Z,17.58
2023-04-15T10:53:04.847Z,21.02
2023-04-15T10:55:34.217Z,18.02
2023-04-15T10:58:03.508Z,17.65
2023-04-15T11:00:35.360Z,18.63
2023-04-15T11:03:07.971Z,21.23
2023-04-15T11:05:52.985Z,19.77
2023-04-15T11:08:21.661Z,22.05
2023-04-15T11:10:56.831Z,26.77
2023-04-15T11:13:31.811Z,24.23
2023-04-15T11:16:04.699Z,24.52
2023-04-15T11:18:34.922Z,26.38
2023-04-15T11:21:07.734Z,30.42
2023-04-15T11:23:39.229Z,23.58
2023-04-15T11:26:11.819Z,25.27
2023-04-15T11:28:41.032Z,26.35
2023-04-15T11:31:12.332Z,25.33
2023-04-15T11:33:47.044Z,25.52
2023-04-15T11:36:14.884Z,28.65
2023-04-15T11:38:47.940Z,30.25
2023-04-15T11:41:23.177Z,31.38
2023-04-15T11:43:51.235Z,29.95
2023-04-15T11:46:20.388Z,31.25
2023-04-15T11:48:48.207Z,26.52
2023-04-15T11:51:15.944Z,29.65
2023-04-15T11:53:46.172Z,28.80
2023-04-15T11:56:20.126Z,27.45
2023-04-15T11:58:48.263Z,30.65
2023-04-15T12:01:15.924Z,32.53
2023-04-15T12:03:47.273Z,34.90
2023-04-15T12:06:18.916Z,31.00
2023-04-15T12:08:57.153Z,25.40
2023-04-15T12:11:31.030Z,35.33
2023-04-15T12:14:00.264Z,36.55
2023-04-15T12:16:29.155Z,34.42
2023-04-15T12:19:00.449Z,30.55
2023-04-15T12:21:34.607Z,37.08
2023-04-15T12:24:04.368Z,34.55
2023-04-15T12:26:36.828Z,34.83
2023-04-15T12:29:06.774Z,35.05
2023-04-15T12:31:35.629Z,41.30
2023-04-15T12:34:08.664Z,37.38
2023-04-15T12:36:37.416Z,37.78
2023-04-15T12:39:06.233Z,37.13
2023-04-15T12:41:34.265Z,40.42
2023-04-15T12:44:02.678Z,41.80
2023-04-15T12:46:30.707Z,43.17
2023-04-15T12:48:58.356Z,43.35
2023-04-15T12:51:28.468Z,41.25
2023-04-15T12:53:56.219Z,36.30
2023-04-15T12:56:24.046Z,40.55
2023-04-15T12:58:52.122Z,33.33
2023-04-15T13:01:20.321Z,39.45
2023-04-15T13:03:48.295Z,37.65
2023-04-15T13:06:16.128Z,36.13
2023-04-15T13:08:57.412Z,41.00
2023-04-15T13:11:26.349Z,42.80
2023-04-15T13:13:55.274Z,36.55
2023-04-15T13:16:24.609Z,30.98
2023-04-15T13:18:52.485Z,37.30
2023-04-15T13:21:20.810Z,38.88
2023-04-15T13:23:51.207Z,39.33
2023-04-15T13:26:19.005Z,36.30
2023-04-15T13:28:48.016Z,38.47
2023-04-15T13:31:16.701Z,36.85
2023-04-15T13:33:44.513Z,28.70
2023-04-15T13:36:12.252Z,32.25
2023-04-15T13:38:39.953Z,30.08
2023-04-15T13:41:09.097Z,37.05
2023-04-15T13:43:36.848Z,31.10
2023-04-15T13:46:06.656Z,32.10
2023-04-15T13:48:34.309Z,29.52
2023-04-15T13:51:01.979Z,31.27
2023-04-15T13:53:39.063Z,30.05
2023-04-15T13:56:09.257Z,28.58
2023-04-15T13:58:37.600Z,29.07
2023-04-15T14:01:06.992Z,24.83
2023-04-15T14:03:35.877Z,28.05
2023-04-15T14:06:04.130Z,27.10
2023-04-15T14:08:31.973Z,25.02
2023-04-15T14:11:00.189Z,30.45
2023-04-15T14:13:29.359Z,26.17
2023-04-15T14:15:58.292Z,23.65
2023-04-15T14:18:25.968Z,24.90
2023-04-15T14:20:53.730Z,24.98
2023-04-15T14:23:21.576Z,21.33
2023-04-15T14:25:49.237Z,22.50
2023-04-15T14:28:17.505Z,23.65
2023-04-15T14:30:46.608Z,20.08
2023-04-15T14:33:14.412Z,23.88
2023-04-15T14:35:42.152Z,23.92
2023-04-15T14:38:11.266Z,20.85
2023-04-15T14:40:39.555Z,20.15
2023-04-15T14:43:07.319Z,21.95
2023-04-15T14:45:40.558Z,21.27
2023-04-15T14:48:12.720Z,25.08
2023-04-15T14:50:43.448Z,22.00
2023-04-15T14:53:11.216Z,21.38
2023-04-15T14:55:38.935Z,22.17
2023-04-15T14:58:08.158Z,26.02
2023-04-15T15:00:36.183Z,23.65
2023-04-15T15:03:04.123Z,18.50
2023-04-15T15:05:33.494Z,20.77
2023-04-15T15:08:01.284Z,21.58
2023-04-15T15:10:44.678Z,21.35
2023-04-15T15:13:16.878Z,19.38
2023-04-15T15:15:44.651Z,19.75
2023-04-15T15:18:12.401Z,21.52
2023-04-15T15:20:41.583Z,21.95
2023-04-15T15:23:09.270Z,19.90
2023-04-15T15:25:37.088Z,20.10
2023-04-15T15:28:06.122Z,18.73
2023-04-15T15:30:33.931Z,18.55
2023-04-15T15:33:01.596Z,19.35
2023-04-15T15:35:29.501Z,19.98
2023-04-15T15:37:58.451Z,16.60
2023-04-15T15:40:27.094Z,20.35
2023-04-15T15:42:54.750Z,22.63
2023-04-15T15:45:22.644Z,22.70
2023-04-15T15:47:50.947Z,22.23
2023-04-15T15:50:18.917Z,24.27
2023-04-15T15:52:46.686Z,25.67
2023-04-15T15:55:15.652Z,26.13
2023-04-15T15:57:44.337Z,23.77
2023-04-15T16:00:13.333Z,27.20
2023-04-15T16:05:12.255Z,22.50
2023-04-15T16:07:40.065Z,23.33
2023-04-15T16:10:08.801Z,24.58
2023-04-15T16:12:37.990Z,25.25
2023-04-15T16:15:06.718Z,26.75
2023-04-15T16:17:34.617Z,24.42
2023-04-15T16:20:05.378Z,24.52
2023-04-15T16:22:33.585Z,30.88
2023-04-15T16:25:01.736Z,36.42
2023-04-15T16:27:29.417Z,23.33
2023-04-15T16:29:58.522Z,27.98
2023-04-15T16:32:26.350Z,22.92
2023-04-15T16:34:54.524Z,25.30
2023-04-15T16:37:22.373Z,27.77
2023-04-15T16:39:50.187Z,25.73
2023-04-15T16:42:20.800Z,28.67
2023-04-15T16:44:48.436Z,30.15
2023-04-15T16:47:17.858Z,26.77
2023-04-15T16:49:45.472Z,26.67
2023-04-15T16:52:13.116Z,29.23
2023-04-15T16:54:41.605Z,26.77
2023-04-15T16:57:09.934Z,30.52
2023-04-15T16:59:38.733Z,25.33
2023-04-15T17:02:06.501Z,28.05
2023-04-15T17:04:35.927Z,25.45
2023-04-15T17:07:04.073Z,28.20
2023-04-15T17:09:32.016Z,33.65
2023-04-15T17:11:59.917Z,28.48
2023-04-15T17:14:28.908Z,28.33
2023-04-15T17:16:59.042Z,26.02
2023-04-15T17:19:27.547Z,25.50
2023-04-15T17:21:58.049Z,23.50
2023-04-15T17:24:26.024Z,24.02
2023-04-15T17:26:54.581Z,28.10
2023-04-15T17:29:22.325Z,24.15
2023-04-15T17:31:50.042Z,25.38
2023-04-15T17:34:17.996Z,20.90
2023-04-15T17:36:45.867Z,21.20
2023-04-15T17:39:15.498Z,22.48
2023-04-15T17:41:43.169Z,18.67
2023-04-15T17:44:10.858Z,14.98
2023-04-15T17:46:38.705Z,19.27
2023-04-15T17:49:06.872Z,16.05
2023-04-15T17:51:34.762Z,16.48
2023-04-15T17:54:02.651Z,17.33
2023-04-15T17:56:31.732Z,15.98
2023-04-15T17:59:00.524Z,15.80
2023-04-15T18:01:28.230Z,16.10
2023-04-15T18:03:56.454Z,16.27
2023-04-15T18:06:24.417Z,17.80
2023-04-15T18:08:52.430Z,19.15
2023-04-15T18:11:20.185Z,16.08
2023-04-15T18:13:49.264Z,16.50
2023-04-15T18:16:17.148Z,17.33
2023-04-15T18:18:44.869Z,16.95
2023-04-15T18:21:13.811Z,15.85
2023-04-15T18:23:41.628Z,19.27
2023-04-15T18:26:09.322Z,21.45
2023-04-15T18:28:39.806Z,17.35
2023-04-15T18:31:08.902Z,16.85
2023-04-15T18:33:36.596Z,17.60
2023-04-15T18:36:04.713Z,16.08
2023-04-15T18:38:32.645Z,18.77
2023-04-15T18:41:00.579Z,17.33
2023-04-15T18:43:28.552Z,15.65
2023-04-15T18:45:56.261Z,21.23
2023-04-15T18:48:26.752Z,17.98
2023-04-15T18:50:54.636Z,18.42
2023-04-15T18:53:22.618Z,18.75
2023-04-15T18:55:50.993Z,16.33
2023-04-15T18:58:18.674Z,18.25
2023-04-15T19:00:46.398Z,17.15
2023-04-15T19:03:14.737Z,17.20
2023-04-15T19:05:43.847Z,15.10
2023-04-15T19:08:11.893Z,18.85
2023-04-15T19:10:39.584Z,18.92
2023-04-15T19:13:07.618Z,17.00
2023-04-15T19:15:35.323Z,18.15
2023-04-15T19:18:05.299Z,16.25
2023-04-15T19:20:36.689Z,17.63
2023-04-15T19:23:07.524Z,16.48
2023-04-15T19:25:35.372Z,15.80
2023-04-15T19:28:02.977Z,17.65
2023-04-15T19:30:32.409Z,18.23
2023-04-15T19:33:00.419Z,16.88
2023-04-15T19:35:28.385Z,20.63
2023-04-15T19:37:56.208Z,18.90
2023-04-15T19:40:26.917Z,17.38
2023-04-15T19:42:54.664Z,17.33
2023-04-15T19:45:22.496Z,17.55
2023-04-15T19:47:50.205Z,17.38
2023-04-15T19:50:19.341Z,16.35
2023-04-15T19:52:47.070Z,19.15
2023-04-15T19:55:14.719Z,16.38
2023-04-15T19:57:43.901Z,23.83
2023-04-15T20:00:12.560Z,17.38
2023-04-15T20:02:40.498Z,19.38
2023-04-15T20:05:10.517Z,18.90
2023-04-15T20:07:39.755Z,14.50
2023-04-15T20:10:09.633Z,17.05
2023-04-15T20:12:50.839Z,17.77
2023-04-15T20:15:23.416Z,17.90
2023-04-15T20:17:51.560Z,14.75
2023-04-15T20:20:19.783Z,15.52
2023-04-15T20:22:47.577Z,14.90
2023-04-15T20:25:15.619Z,16.58
2023-04-15T20:27:43.851Z,16.50
2023-04-15T20:30:12.201Z,16.98
2023-04-15T20:32:41.504Z,13.82
2023-04-15T20:35:09.451Z,14.82
2023-04-15T20:37:40.234Z,15.77
2023-04-15T20:40:09.097Z,17.00
2023-04-15T20:42:36.735Z,17.58
2023-04-15T20:45:06.989Z,16.70
2023-04-15T20:47:34.708Z,15.13
2023-04-15T20:50:07.285Z,14.80
2023-04-15T20:52:34.935Z,16.08
2023-04-15T20:55:02.720Z,14.45
2023-04-15T20:57:31.500Z,14.82
2023-04-15T20:59:59.241Z,16.50
2023-04-15T21:02:27.137Z,13.55
2023-04-15T21:04:55.140Z,16.88
2023-04-15T21:07:24.392Z,17.88
2023-04-15T21:09:52.096Z,16.10
2023-04-15T21:12:19.995Z,13.68
2023-04-15T21:14:47.654Z,14.52
2023-04-15T21:17:15.488Z,18.73
2023-04-15T21:19:44.329Z,15.23
2023-04-15T21:22:12.098Z,15.55
2023-04-15T21:24:41.416Z,18.63
2023-04-15T21:27:10.101Z,16.17
2023-04-15T21:29:40.162Z,17.85
2023-04-15T21:32:07.898Z,22.10
2023-04-15T21:34:35.694Z,22.00
2023-04-15T21:37:03.920Z,22.38
2023-04-15T21:39:33.463Z,18.83
2023-04-15T21:42:02.731Z,18.42
2023-04-15T21:44:30.466Z,18.85
2023-04-15T21:46:58.242Z,24.38
2023-04-15T21:49:25.985Z,20.33
2023-04-15T21:51:53.634Z,20.73
2023-04-15T21:54:21.554Z,20.77
2023-04-15T21:56:50.852Z,22.13
2023-04-15T21:59:19.892Z,22.33
2023-04-15T22:01:47.891Z,21.90
2023-04-15T22:04:15.783Z,21.48
2023-04-15T22:06:43.448Z,24.13
2023-04-15T22:09:13.953Z,20.33
2023-04-15T22:11:42.447Z,21.88
2023-04-15T22:14:12.564Z,23.20
2023-04-15T22:16:41.504Z,23.17
2023-04-15T22:19:09.653Z,24.42
2023-04-15T22:21:37.400Z,26.58
2023-04-15T22:24:39.260Z,24.52
2023-04-15T22:26:53.414Z,21.38
2023-04-15T22:29:21.142Z,23.35
2023-04-15T22:31:50.504Z,27.58
2023-04-15T22:34:21.316Z,24.08
2023-04-15T22:36:49.069Z,24.52
2023-04-15T22:39:16.914Z,23.52
2023-04-15T22:41:44.986Z,20.63
2023-04-15T22:44:12.956Z,23.23
2023-04-15T22:46:41.281Z,25.60
2023-04-15T22:49:11.042Z,26.10
2023-04-15T22:51:38.984Z,23.77
2023-04-15T22:54:06.733Z,24.10
2023-04-15T22:56:34.643Z,24.67
2023-04-15T22:59:02.347Z,25.27
2023-04-15T23:01:31.950Z,25.52
2023-04-15T23:04:05.848Z,25.30
2023-04-15T23:06:36.946Z,29.73
2023-04-15T23:09:04.799Z,26.45
2023-04-15T23:11:32.480Z,24.63
2023-04-15T23:14:00.170Z,21.35
2023-04-15T23:16:28.122Z,22.20
2023-04-15T23:18:55.911Z,25.27
2023-04-15T23:21:25.929Z,24.52
2023-04-15T23:23:55.311Z,23.87
2023-04-15T23:26:22.967Z,26.17
2023-04-15T23:28:50.672Z,21.10
2023-04-15T23:31:18.488Z,25.42
2023-04-15T23:33:46.195Z,24.08
2023-04-15T23:36:13.750Z,23.02
2023-04-15T23:38:42.815Z,19.95
2023-04-15T23:41:12.125Z,24.83
2023-04-15T23:43:39.838Z,22.52
2023-04-15T23:46:07.539Z,27.83
2023-04-15T23:48:35.323Z,26.67
2023-04-15T23:51:04.869Z,28.70
2023-04-15T23:53:32.503Z,26.58
2023-04-15T23:56:00.359Z,24.50
2023-04-15T23:58:29.407Z,23.35
